Time;durP1;ratioP1;P1;durP2;ratioP2;P2;SDS_P1;SDS_P2;PMS_P1;PMS_P2;Temp;Humidity;BMP_temperature;BMP_pressure;BME280_temperature;BME280_humidity;BME280_pressure;Samples;Min_cycle;Max_cycle;Signal;HPM_P1;HPM_P2
2021/06/07 00:02:14;;;;;;;4.02;3.67;;;;;;;20.17;60.02;100861.33;;;;-53
2021/06/07 00:05:14;;;;;;;4.20;3.77;;;;;;;20.17;59.93;100857.72;;;;-52
2021/06/07 00:08:14;;;;;;;4.37;3.97;;;;;;;20.17;59.98;100855.03;;;;-52
2021/06/07 00:11:14;;;;;;;4.89;3.83;;;;;;;20.16;59.97;100856.02;;;;-52
2021/06/07 00:14:14;;;;;;;4.43;4.03;;;;;;;20.16;59.99;100855.77;;;;-52
2021/06/07 00:17:14;;;;;;;4.85;3.89;;;;;;;20.15;60.00;100855.94;;;;-53
2021/06/07 00:20:14;;;;;;;4.57;3.98;;;;;;;20.15;60.00;100854.63;;;;-53
2021/06/07 00:23:14;;;;;;;4.67;4.13;;;;;;;20.14;60.01;100852.90;;;;-52
2021/06/07 00:26:14;;;;;;;5.41;3.95;;;;;;;20.14;59.97;100854.37;;;;-52
2021/06/07 00:29:14;;;;;;;4.65;3.99;;;;;;;20.14;59.93;100854.86;;;;-52
2021/06/07 00:32:14;;;;;;;4.39;3.97;;;;;;;20.13;59.97;100852.09;;;;-59
2021/06/07 00:35:14;;;;;;;4.21;3.81;;;;;;;20.12;59.95;100849.38;;;;-59
2021/06/07 00:38:14;;;;;;;4.34;3.93;;;;;;;20.12;59.97;100849.05;;;;-58
2021/06/07 00:41:14;;;;;;;4.31;3.91;;;;;;;20.12;59.96;100853.45;;;;-59
2021/06/07 00:44:14;;;;;;;4.24;3.84;;;;;;;20.13;60.00;100852.23;;;;-59
2021/06/07 00:47:14;;;;;;;4.24;3.84;;;;;;;20.12;60.00;100855.48;;;;-59
2021/06/07 00:50:14;;;;;;;4.77;4.27;;;;;;;20.11;59.98;100855.41;;;;-59
2021/06/07 00:53:14;;;;;;;4.45;4.05;;;;;;;20.11;59.93;100853.45;;;;-59
2021/06/07 00:56:14;;;;;;;4.27;3.84;;;;;;;20.11;59.95;100852.53;;;;-54
2021/06/07 00:59:14;;;;;;;4.41;4.01;;;;;;;20.10;59.99;100854.73;;;;-53
2021/06/07 01:02:14;;;;;;;4.25;3.79;;;;;;;20.09;59.99;100854.48;;;;-53
2021/06/07 01:05:14;;;;;;;4.49;3.87;;;;;;;20.09;59.96;100853.19;;;;-53
2021/06/07 01:08:14;;;;;;;4.29;3.89;;;;;;;20.09;59.98;100852.46;;;;-59
2021/06/07 01:11:14;;;;;;;4.15;3.75;;;;;;;20.08;59.98;100848.53;;;;-59
2021/06/07 01:14:14;;;;;;;4.54;4.11;;;;;;;20.08;59.97;100850.48;;;;-59
2021/06/07 01:17:14;;;;;;;4.39;3.97;;;;;;;20.07;59.98;100842.42;;;;-59
2021/06/07 01:20:14;;;;;;;5.45;4.05;;;;;;;20.07;59.97;100844.05;;;;-59
2021/06/07 01:23:14;;;;;;;4.47;4.07;;;;;;;20.07;59.98;100847.15;;;;-59
2021/06/07 01:26:14;;;;;;;4.28;3.88;;;;;;;20.07;60.00;100842.02;;;;-58
2021/06/07 01:29:14;;;;;;;4.34;3.94;;;;;;;20.06;59.98;100842.48;;;;-58
2021/06/07 01:32:14;;;;;;;4.49;4.05;;;;;;;20.06;59.95;100839.88;;;;-59
2021/06/07 01:35:14;;;;;;;4.36;3.96;;;;;;;20.06;59.96;100836.55;;;;-58
2021/06/07 01:38:14;;;;;;;4.03;3.65;;;;;;;20.06;59.92;100836.30;;;;-59
2021/06/07 01:41:14;;;;;;;4.45;4.01;;;;;;;20.05;59.93;100830.86;;;;-58
2021/06/07 01:44:14;;;;;;;4.31;3.91;;;;;;;20.05;59.93;100828.02;;;;-58
2021/06/07 01:47:14;;;;;;;4.33;3.93;;;;;;;20.04;59.97;100827.25;;;;-59
2021/06/07 01:50:14;;;;;;;4.69;3.79;;;;;;;20.04;59.93;100830.66;;;;-53
2021/06/07 01:53:14;;;;;;;4.09;3.73;;;;;;;20.04;59.99;100832.21;;;;-53
2021/06/07 01:56:14;;;;;;;4.32;3.92;;;;;;;20.04;59.96;100829.69;;;;-53
2021/06/07 01:59:14;;;;;;;4.88;4.38;;;;;;;20.04;59.97;100829.13;;;;-53
2021/06/07 02:02:14;;;;;;;4.51;4.11;;;;;;;20.03;59.92;100828.55;;;;-53
2021/06/07 02:05:14;;;;;;;4.42;4.02;;;;;;;20.04;59.90;100829.13;;;;-59
2021/06/07 02:08:14;;;;;;;4.27;3.87;;;;;;;20.02;59.89;100823.33;;;;-59
2021/06/07 02:11:14;;;;;;;4.48;4.08;;;;;;;20.02;59.94;100820.72;;;;-59
2021/06/07 02:14:14;;;;;;;4.20;3.80;;;;;;;20.02;59.92;100825.27;;;;-59
2021/06/07 02:17:14;;;;;;;4.40;4.00;;;;;;;20.01;59.93;100822.19;;;;-59
2021/06/07 02:20:14;;;;;;;4.45;4.05;;;;;;;20.01;59.92;100820.80;;;;-57
2021/06/07 02:23:14;;;;;;;4.51;4.10;;;;;;;20.02;59.94;100822.59;;;;-59
2021/06/07 02:26:14;;;;;;;4.32;3.92;;;;;;;20.01;59.92;100823.25;;;;-52
2021/06/07 02:29:14;;;;;;;4.39;3.99;;;;;;;20.00;59.95;100822.98;;;;-52
2021/06/07 02:32:14;;;;;;;4.27;3.87;;;;;;;20.01;59.94;100824.06;;;;-52
2021/06/07 02:35:14;;;;;;;4.51;4.11;;;;;;;20.01;59.90;100824.71;;;;-52
2021/06/07 02:38:14;;;;;;;4.40;4.00;;;;;;;20.00;59.88;100822.98;;;;-53
2021/06/07 02:41:14;;;;;;;4.51;4.11;;;;;;;20.00;59.93;100824.28;;;;-52
2021/06/07 02:44:14;;;;;;;4.49;4.09;;;;;;;20.00;59.93;100826.72;;;;-52
2021/06/07 02:47:14;;;;;;;4.69;4.18;;;;;;;19.99;59.87;100827.05;;;;-52
2021/06/07 02:50:14;;;;;;;4.87;4.00;;;;;;;19.99;59.92;100826.23;;;;-52
2021/06/07 02:53:14;;;;;;;4.21;3.81;;;;;;;19.99;59.88;100822.98;;;;-53
2021/06/07 02:56:14;;;;;;;4.45;4.05;;;;;;;19.99;59.90;100821.52;;;;-57
2021/06/07 02:59:14;;;;;;;4.41;4.01;;;;;;;19.99;59.90;100825.02;;;;-59
2021/06/07 03:02:14;;;;;;;4.45;4.05;;;;;;;19.99;59.95;100826.48;;;;-58
2021/06/07 03:05:14;;;;;;;4.38;3.95;;;;;;;19.99;59.89;100822.50;;;;-58
2021/06/07 03:08:14;;;;;;;4.58;4.16;;;;;;;19.98;59.93;100826.86;;;;-58
2021/06/07 03:11:14;;;;;;;4.45;4.03;;;;;;;19.98;59.92;100826.53;;;;-59
2021/06/07 03:14:14;;;;;;;4.41;4.01;;;;;;;19.98;59.95;100829.87;;;;-58
2021/06/07 03:17:14;;;;;;;4.87;4.40;;;;;;;19.97;59.95;100826.38;;;;-58
2021/06/07 03:20:14;;;;;;;4.53;4.09;;;;;;;19.97;59.96;100831.26;;;;-58
2021/06/07 03:23:14;;;;;;;4.46;4.06;;;;;;;19.96;59.91;100827.28;;;;-58
2021/06/07 03:26:14;;;;;;;4.40;4.00;;;;;;;19.97;59.89;100832.23;;;;-57
2021/06/07 03:29:14;;;;;;;4.25;3.85;;;;;;;19.97;59.97;100833.45;;;;-58
2021/06/07 03:32:14;;;;;;;4.49;4.09;;;;;;;19.95;59.98;100831.80;;;;-57
2021/06/07 03:35:14;;;;;;;4.31;3.91;;;;;;;19.96;59.96;100834.92;;;;-59
2021/06/07 03:38:15;;;;;;;4.36;3.96;;;;;;;19.95;59.92;100834.81;;;;-59
2021/06/07 03:41:14;;;;;;;4.75;4.34;;;;;;;19.95;60.00;100833.44;;;;-59
2021/06/07 03:44:14;;;;;;;4.59;4.12;;;;;;;19.95;59.96;100829.45;;;;-57
2021/06/07 03:47:14;;;;;;;4.72;4.01;;;;;;;19.94;59.95;100830.88;;;;-57
2021/06/07 03:50:14;;;;;;;4.31;3.91;;;;;;;19.95;59.93;100830.42;;;;-58
2021/06/07 03:53:14;;;;;;;4.42;4.02;;;;;;;19.94;60.00;100830.19;;;;-58
2021/06/07 03:56:14;;;;;;;4.72;4.25;;;;;;;19.94;60.00;100827.47;;;;-58
2021/06/07 03:59:14;;;;;;;4.29;3.89;;;;;;;19.94;59.97;100824.45;;;;-58
2021/06/07 04:02:16;;;;;;;4.50;4.10;;;;;;;19.93;59.97;100828.78;;;;-59
2021/06/07 04:05:14;;;;;;;4.39;3.99;;;;;;;19.93;59.97;100828.20;;;;-58
2021/06/07 04:08:14;;;;;;;4.21;3.81;;;;;;;19.94;59.93;100830.72;;;;-59
2021/06/07 04:11:14;;;;;;;4.25;3.85;;;;;;;19.93;59.92;100830.56;;;;-53
2021/06/07 04:14:14;;;;;;;4.33;3.93;;;;;;;19.93;59.96;100826.42;;;;-53
2021/06/07 04:17:14;;;;;;;4.37;3.97;;;;;;;19.93;59.92;100826.83;;;;-59
2021/06/07 04:20:14;;;;;;;4.55;4.06;;;;;;;19.92;59.97;100829.52;;;;-59
2021/06/07 04:23:14;;;;;;;4.57;4.17;;;;;;;19.92;59.88;100828.27;;;;-58
2021/06/07 04:26:14;;;;;;;3.92;3.57;;;;;;;19.92;59.96;100827.72;;;;-53
2021/06/07 04:29:14;;;;;;;3.97;3.65;;;;;;;19.91;59.89;100828.83;;;;-58
2021/06/07 04:32:14;;;;;;;4.17;3.77;;;;;;;19.92;59.90;100831.35;;;;-58
2021/06/07 04:35:14;;;;;;;4.10;3.72;;;;;;;19.92;59.85;100831.52;;;;-53
2021/06/07 04:38:14;;;;;;;4.14;3.77;;;;;;;19.92;59.94;100829.08;;;;-59
2021/06/07 04:41:14;;;;;;;4.57;3.77;;;;;;;19.91;59.94;100827.78;;;;-57
2021/06/07 04:44:14;;;;;;;4.26;3.86;;;;;;;19.91;59.91;100825.42;;;;-57
2021/06/07 04:47:14;;;;;;;4.07;3.70;;;;;;;19.92;59.88;100829.41;;;;-58
2021/06/07 04:50:14;;;;;;;4.17;3.77;;;;;;;19.91;59.89;100826.16;;;;-59
2021/06/07 04:53:14;;;;;;;4.06;3.66;;;;;;;19.91;59.91;100827.37;;;;-59
2021/06/07 04:56:14;;;;;;;4.00;3.60;;;;;;;19.91;59.78;100826.23;;;;-57
2021/06/07 04:59:14;;;;;;;3.98;3.58;;;;;;;19.91;59.80;100823.55;;;;-58
2021/06/07 05:02:14;;;;;;;4.27;3.68;;;;;;;19.90;59.76;100823.95;;;;-51
2021/06/07 05:05:14;;;;;;;4.19;3.79;;;;;;;19.91;59.87;100829.81;;;;-52
2021/06/07 05:08:14;;;;;;;7.47;4.12;;;;;;;19.91;62.67;100828.27;;;;-48
2021/06/07 05:11:15;;;;;;;5.25;4.77;;;;;;;19.91;67.25;100826.06;;;;-50
2021/06/07 05:14:14;;;;;;;5.68;5.09;;;;;;;19.80;69.09;100826.53;;;;-56
2021/06/07 05:17:14;;;;;;;6.99;4.49;;;;;;;19.78;67.12;100830.33;;;;-59
2021/06/07 05:20:14;;;;;;;4.67;4.27;;;;;;;19.79;66.61;100827.16;;;;-58
2021/06/07 05:23:14;;;;;;;5.46;3.95;;;;;;;19.82;66.31;100827.20;;;;-55
2021/06/07 05:26:14;;;;;;;4.38;3.93;;;;;;;19.83;66.06;100826.80;;;;-55
2021/06/07 05:29:14;;;;;;;4.22;3.49;;;;;;;19.84;65.58;100831.86;;;;-55
2021/06/07 05:32:14;;;;;;;3.74;3.29;;;;;;;19.84;64.81;100830.80;;;;-55
2021/06/07 05:35:14;;;;;;;3.40;3.10;;;;;;;19.86;64.62;100837.88;;;;-56
2021/06/07 05:38:14;;;;;;;3.49;3.19;;;;;;;19.86;64.13;100838.64;;;;-55
2021/06/07 05:41:14;;;;;;;3.81;3.29;;;;;;;19.87;63.86;100841.23;;;;-56
2021/06/07 05:44:14;;;;;;;3.69;3.31;;;;;;;19.87;63.69;100844.65;;;;-56
2021/06/07 05:47:14;;;;;;;3.47;2.87;;;;;;;19.88;63.36;100845.70;;;;-56
2021/06/07 05:50:14;;;;;;;3.79;3.05;;;;;;;19.87;63.34;100845.95;;;;-56
2021/06/07 05:53:14;;;;;;;3.07;2.77;;;;;;;19.88;63.08;100848.42;;;;-56
2021/06/07 05:56:14;;;;;;;2.89;2.69;;;;;;;19.88;62.84;100851.41;;;;-56
2021/06/07 05:59:14;;;;;;;3.02;2.82;;;;;;;19.88;62.80;100852.48;;;;-58
2021/06/07 06:02:14;;;;;;;2.89;2.69;;;;;;;19.88;62.98;100846.69;;;;-58
2021/06/07 06:05:14;;;;;;;2.77;2.53;;;;;;;19.87;62.60;100848.80;;;;-55
2021/06/07 06:08:14;;;;;;;2.74;2.54;;;;;;;19.87;62.49;100852.30;;;;-54
2021/06/07 06:11:14;;;;;;;2.95;2.66;;;;;;;19.87;62.35;100851.97;;;;-55
2021/06/07 06:14:14;;;;;;;2.93;2.70;;;;;;;19.88;62.28;100854.33;;;;-59
2021/06/07 06:17:14;;;;;;;2.79;2.59;;;;;;;19.88;62.23;100855.79;;;;-58
2021/06/07 06:20:14;;;;;;;3.56;2.57;;;;;;;19.87;62.21;100854.00;;;;-55
2021/06/07 06:23:14;;;;;;;2.69;2.49;;;;;;;19.87;62.11;100855.14;;;;-55
2021/06/07 06:26:14;;;;;;;2.86;2.65;;;;;;;19.88;62.06;100856.93;;;;-59
2021/06/07 06:29:14;;;;;;;2.61;2.41;;;;;;;19.87;61.95;100854.25;;;;-55
2021/06/07 06:32:14;;;;;;;2.47;2.27;;;;;;;19.88;61.91;100854.48;;;;-55
2021/06/07 06:35:14;;;;;;;2.51;2.31;;;;;;;19.87;61.88;100855.14;;;;-55
2021/06/07 06:38:15;;;;;;;2.68;2.39;;;;;;;19.88;62.67;100855.90;;;;-51
2021/06/07 06:41:14;;;;;;;3.07;2.48;;;;;;;19.89;63.03;100858.83;;;;-51
2021/06/07 06:44:14;;;;;;;2.73;2.53;;;;;;;19.89;63.19;100860.62;;;;-56
2021/06/07 06:47:14;;;;;;;3.26;2.57;;;;;;;19.91;63.07;100861.70;;;;-50
2021/06/07 06:50:14;;;;;;;6.75;2.32;;;;;;;19.92;62.32;100866.91;;;;-51
2021/06/07 06:53:15;;;;;;;2.67;2.47;;;;;;;19.92;62.75;100869.67;;;;-52
2021/06/07 06:56:14;;;;;;;3.14;2.31;;;;;;;19.91;62.58;100871.95;;;;-49
2021/06/07 06:59:14;;;;;;;3.03;2.41;;;;;;;19.91;62.65;100870.97;;;;-49
2021/06/07 07:02:14;;;;;;;2.82;2.40;;;;;;;19.92;62.58;100870.16;;;;-49
2021/06/07 07:05:14;;;;;;;3.23;2.43;;;;;;;19.91;62.51;100873.25;;;;-51
2021/06/07 07:08:14;;;;;;;2.62;2.42;;;;;;;19.92;62.40;100871.95;;;;-52
2021/06/07 07:11:14;;;;;;;2.95;2.36;;;;;;;19.91;62.38;100868.61;;;;-50
2021/06/07 07:14:14;;;;;;;2.77;2.55;;;;;;;19.91;62.27;100867.55;;;;-50
2021/06/07 07:17:14;;;;;;;2.85;2.53;;;;;;;19.91;62.29;100869.91;;;;-50
2021/06/07 07:20:14;;;;;;;3.13;2.40;;;;;;;19.90;62.10;100868.45;;;;-51
2021/06/07 07:23:14;;;;;;;2.51;2.31;;;;;;;19.90;62.04;100872.89;;;;-50
2021/06/07 07:26:14;;;;;;;2.72;2.43;;;;;;;19.90;62.03;100871.87;;;;-50
2021/06/07 07:29:14;;;;;;;2.60;2.40;;;;;;;19.90;62.04;100874.47;;;;-50
2021/06/07 07:32:14;;;;;;;2.45;2.25;;;;;;;19.88;61.96;100876.08;;;;-50
2021/06/07 07:35:14;;;;;;;2.80;2.60;;;;;;;19.89;61.91;100880.30;;;;-50
2021/06/07 07:38:14;;;;;;;2.71;2.35;;;;;;;19.88;61.81;100883.07;;;;-51
2021/06/07 07:41:14;;;;;;;2.73;2.30;;;;;;;19.88;61.83;100886.00;;;;-50
2021/06/07 07:44:14;;;;;;;2.41;2.21;;;;;;;19.87;61.73;100884.51;;;;-50
2021/06/07 07:47:14;;;;;;;3.21;2.39;;;;;;;19.88;61.81;100887.46;;;;-51
2021/06/07 07:50:14;;;;;;;2.35;2.15;;;;;;;19.87;61.72;100886.54;;;;-52
2021/06/07 07:53:14;;;;;;;2.40;2.20;;;;;;;19.87;61.62;100890.45;;;;-51
2021/06/07 07:56:14;;;;;;;2.60;2.40;;;;;;;19.87;61.64;100889.55;;;;-50
2021/06/07 07:59:14;;;;;;;2.49;2.29;;;;;;;19.87;61.49;100893.70;;;;-51
2021/06/07 08:02:14;;;;;;;2.64;2.38;;;;;;;19.87;61.51;100891.67;;;;-50
2021/06/07 08:05:14;;;;;;;2.49;2.29;;;;;;;19.86;61.43;100886.87;;;;-51
2021/06/07 08:08:14;;;;;;;2.50;2.30;;;;;;;19.86;61.42;100888.09;;;;-50
2021/06/07 08:11:14;;;;;;;2.53;2.33;;;;;;;19.86;61.36;100888.58;;;;-52
2021/06/07 08:14:15;;;;;;;2.38;2.18;;;;;;;19.87;61.39;100888.82;;;;-52
2021/06/07 08:17:16;;;;;;;2.98;2.32;;;;;;;19.86;61.32;100888.82;;;;-52
2021/06/07 08:20:16;;;;;;;2.41;2.21;;;;;;;19.86;61.32;100882.72;;;;-52
2021/06/07 08:23:14;;;;;;;2.79;2.57;;;;;;;19.86;61.22;100881.80;;;;-52
2021/06/07 08:26:13;;;;;;;2.47;2.27;;;;;;;19.86;61.28;100886.38;;;;-52
2021/06/07 08:29:14;;;;;;;2.49;2.29;;;;;;;19.86;61.20;100886.55;;;;-50
2021/06/07 08:32:14;;;;;;;2.36;2.17;;;;;;;19.86;61.13;100884.56;;;;-50
2021/06/07 08:35:14;;;;;;;2.95;2.29;;;;;;;19.86;61.30;100890.86;;;;-50
2021/06/07 08:38:14;;;;;;;2.41;2.21;;;;;;;19.86;61.20;100890.69;;;;-50
2021/06/07 08:41:13;;;;;;;3.47;2.31;;;;;;;19.86;61.17;100891.34;;;;-50
2021/06/07 08:44:14;;;;;;;2.63;2.17;;;;;;;19.86;61.15;100887.92;;;;-50
2021/06/07 08:47:14;;;;;;;2.58;2.30;;;;;;;19.85;61.13;100883.09;;;;-50
2021/06/07 08:50:14;;;;;;;2.94;2.35;;;;;;;19.84;61.24;100882.53;;;;-54
2021/06/07 08:53:14;;;;;;;2.56;2.36;;;;;;;19.87;61.66;100883.61;;;;-54
2021/06/07 08:56:13;;;;;;;4.51;2.53;;;;;;;19.88;62.30;100881.28;;;;-52
2021/06/07 08:59:14;;;;;;;7.29;2.58;;;;;;;19.90;62.23;100880.38;;;;-52
2021/06/07 09:02:14;;;;;;;6.43;2.52;;;;;;;19.91;62.33;100883.82;;;;-50
2021/06/07 09:05:14;;;;;;;2.73;2.41;;;;;;;19.91;62.42;100885.29;;;;-48
2021/06/07 09:08:14;;;;;;;2.84;2.51;;;;;;;19.91;62.34;100883.82;;;;-49
2021/06/07 09:11:14;;;;;;;3.29;2.43;;;;;;;19.93;62.54;100886.86;;;;-51
2021/06/07 09:14:14;;;;;;;5.04;2.47;;;;;;;19.93;62.05;100885.95;;;;-54
2021/06/07 09:17:14;;;;;;;7.60;2.40;;;;;;;19.93;62.24;100884.98;;;;-57
2021/06/07 09:20:14;;;;;;;4.32;2.41;;;;;;;19.93;62.38;100885.72;;;;-56
2021/06/07 09:23:14;;;;;;;3.78;2.52;;;;;;;19.92;62.33;100882.55;;;;-49
2021/06/07 09:26:13;;;;;;;3.08;2.45;;;;;;;19.93;62.35;100885.64;;;;-49
2021/06/07 09:29:14;;;;;;;3.03;2.51;;;;;;;19.92;62.34;100886.17;;;;-51
2021/06/07 09:32:14;;;;;;;3.78;2.55;;;;;;;19.95;62.13;100890.70;;;;-51
2021/06/07 09:35:14;;;;;;;3.71;2.29;;;;;;;19.96;62.15;100889.23;;;;-51
2021/06/07 09:38:14;;;;;;;3.53;2.60;;;;;;;19.97;62.41;100894.80;;;;-60
2021/06/07 09:41:13;;;;;;;4.17;2.53;;;;;;;19.98;62.54;100894.98;;;;-59
2021/06/07 09:44:14;;;;;;;2.90;2.51;;;;;;;20.00;62.70;100896.84;;;;-51
2021/06/07 09:47:14;;;;;;;3.57;2.50;;;;;;;20.01;62.84;100897.85;;;;-50
2021/06/07 09:50:14;;;;;;;2.94;2.43;;;;;;;20.02;62.86;100896.05;;;;-52
2021/06/07 09:53:14;;;;;;;11.39;2.51;;;;;;;20.03;62.64;100894.86;;;;-55
2021/06/07 09:56:13;;;;;;;3.13;2.35;;;;;;;20.04;62.66;100896.16;;;;-51
2021/06/07 09:59:14;;;;;;;3.94;2.62;;;;;;;20.05;62.63;100891.47;;;;-55
2021/06/07 10:02:14;;;;;;;6.07;2.69;;;;;;;20.06;62.60;100895.86;;;;-55
2021/06/07 10:05:14;;;;;;;4.39;2.52;;;;;;;20.07;62.65;100894.91;;;;-51
2021/06/07 10:08:14;;;;;;;2.97;2.50;;;;;;;20.07;62.83;100895.48;;;;-57
2021/06/07 10:11:13;;;;;;;4.47;2.59;;;;;;;20.08;62.64;100896.86;;;;-57
2021/06/07 10:14:14;;;;;;;4.83;2.72;;;;;;;20.08;62.92;100894.33;;;;-50
2021/06/07 10:17:14;;;;;;;3.46;2.40;;;;;;;20.10;62.51;100895.25;;;;-50
2021/06/07 10:23:14;;;;;;;3.41;2.69;;;;;;;20.09;62.41;100890.62;;;;-50
2021/06/07 10:26:13;;;;;;;5.83;2.63;;;;;;;20.08;62.45;100896.12;;;;-50
2021/06/07 10:29:14;;;;;;;3.06;2.48;;;;;;;20.08;62.09;100895.31;;;;-50
2021/06/07 10:32:13;;;;;;;3.62;2.51;;;;;;;20.07;62.43;100895.48;;;;-50
2021/06/07 10:35:14;;;;;;;2.83;2.45;;;;;;;20.06;62.32;100892.28;;;;-51
2021/06/07 10:38:14;;;;;;;3.04;2.31;;;;;;;20.06;62.32;100890.00;;;;-56
2021/06/07 10:41:14;;;;;;;4.17;2.76;;;;;;;20.06;62.26;100892.11;;;;-51
2021/06/07 10:44:14;;;;;;;4.64;2.46;;;;;;;20.05;62.21;100894.23;;;;-53
2021/06/07 10:47:14;;;;;;;2.74;2.43;;;;;;;20.06;62.21;100897.00;;;;-53
2021/06/07 10:50:14;;;;;;;3.21;2.42;;;;;;;20.06;61.96;100896.34;;;;-53
2021/06/07 10:53:14;;;;;;;2.81;2.40;;;;;;;20.04;62.08;100892.01;;;;-53
2021/06/07 10:56:14;;;;;;;2.99;2.47;;;;;;;20.05;62.05;100895.62;;;;-53
2021/06/07 10:59:14;;;;;;;4.70;2.51;;;;;;;20.04;61.99;100893.88;;;;-53
2021/06/07 11:02:13;;;;;;;2.79;2.42;;;;;;;20.04;61.91;100892.91;;;;-53
2021/06/07 11:05:14;;;;;;;3.44;2.40;;;;;;;20.04;61.75;100895.02;;;;-51
2021/06/07 11:08:14;;;;;;;3.35;2.50;;;;;;;20.03;61.74;100893.40;;;;-51
2021/06/07 11:11:16;;;;;;;3.18;2.41;;;;;;;20.04;61.90;100897.54;;;;-51
2021/06/07 11:14:14;;;;;;;2.65;2.41;;;;;;;20.03;61.83;100899.02;;;;-51
2021/06/07 11:17:13;;;;;;;3.26;2.43;;;;;;;20.03;61.70;100897.71;;;;-51
2021/06/07 11:20:14;;;;;;;2.64;2.41;;;;;;;20.03;61.65;100900.23;;;;-50
2021/06/07 11:23:14;;;;;;;2.66;2.41;;;;;;;20.03;61.62;100894.78;;;;-50
2021/06/07 11:26:14;;;;;;;2.61;2.41;;;;;;;20.04;61.62;100896.81;;;;-50
2021/06/07 11:29:14;;;;;;;3.55;2.29;;;;;;;20.02;61.63;100892.07;;;;-50
2021/06/07 11:32:14;;;;;;;2.98;2.42;;;;;;;20.02;61.48;100889.80;;;;-50
2021/06/07 11:35:14;;;;;;;2.58;2.35;;;;;;;20.03;61.45;100889.49;;;;-50
2021/06/07 11:38:14;;;;;;;2.85;2.41;;;;;;;20.02;61.48;100885.40;;;;-53
2021/06/07 11:41:13;;;;;;;3.34;2.16;;;;;;;20.02;61.51;100882.80;;;;-53
2021/06/07 11:44:14;;;;;;;3.03;2.26;;;;;;;20.02;61.46;100883.77;;;;-56
2021/06/07 11:47:13;;;;;;;2.65;2.41;;;;;;;20.02;61.40;100880.19;;;;-50
2021/06/07 11:50:14;;;;;;;7.20;2.57;;;;;;;20.06;61.80;100879.83;;;;-49
2021/06/07 11:53:15;;;;;;;6.54;2.39;;;;;;;20.07;61.86;100879.04;;;;-50
2021/06/07 11:56:15;;;;;;;5.01;2.46;;;;;;;20.08;62.03;100876.11;;;;-51
2021/06/07 11:59:14;;;;;;;3.71;2.48;;;;;;;20.10;62.07;100874.42;;;;-53
2021/06/07 12:02:13;;;;;;;3.90;2.42;;;;;;;20.12;62.05;100877.30;;;;-54
2021/06/07 12:05:14;;;;;;;2.61;2.35;;;;;;;20.13;62.06;100880.00;;;;-52
2021/06/07 12:08:14;;;;;;;4.59;2.54;;;;;;;20.15;61.74;100883.33;;;;-50
2021/06/07 12:11:13;;;;;;;4.71;2.56;;;;;;;20.15;62.03;100884.06;;;;-50
2021/06/07 12:14:14;;;;;;;4.21;2.59;;;;;;;20.17;62.09;100883.68;;;;-51
2021/06/07 12:17:17;;;;;;;3.30;2.50;;;;;;;20.17;62.30;100875.13;;;;-55
2021/06/07 12:20:14;;;;;;;4.98;2.60;;;;;;;20.17;62.10;100876.47;;;;-50
2021/06/07 12:23:14;;;;;;;4.79;2.53;;;;;;;20.18;62.17;100875.48;;;;-50
2021/06/07 12:29:14;;;;;;;3.20;2.55;;;;;;;20.20;61.95;100876.80;;;;-49
2021/06/07 12:32:13;;;;;;;4.62;2.45;;;;;;;20.21;61.83;100873.98;;;;-51
2021/06/07 12:35:15;;;;;;;4.29;2.31;;;;;;;20.22;62.01;100872.59;;;;-51
2021/06/07 12:38:14;;;;;;;2.50;2.29;;;;;;;20.23;61.94;100872.51;;;;-50
2021/06/07 12:41:14;;;;;;;2.49;2.29;;;;;;;20.23;61.99;100867.66;;;;-49
2021/06/07 12:44:14;;;;;;;2.49;2.10;;;;;;;20.23;61.89;100868.63;;;;-52
2021/06/07 12:47:14;;;;;;;3.90;2.33;;;;;;;20.24;61.88;100867.24;;;;-50
2021/06/07 12:50:14;;;;;;;2.61;2.38;;;;;;;20.26;61.68;100869.47;;;;-51
2021/06/07 12:53:14;;;;;;;2.89;2.40;;;;;;;20.26;61.71;100870.11;;;;-51
2021/06/07 12:56:13;;;;;;;6.38;2.43;;;;;;;20.26;61.80;100868.65;;;;-56
2021/06/07 12:59:14;;;;;;;3.53;2.39;;;;;;;20.27;61.96;100870.95;;;;-47
2021/06/07 13:02:14;;;;;;;3.55;2.18;;;;;;;20.28;61.85;100873.31;;;;-51
2021/06/07 13:05:13;;;;;;;2.43;2.23;;;;;;;20.29;61.86;100875.59;;;;-53
2021/06/07 13:08:14;;;;;;;5.41;2.37;;;;;;;20.29;61.69;100874.28;;;;-60
2021/06/07 13:11:13;;;;;;;3.50;2.25;;;;;;;20.30;61.75;100877.72;;;;-53
2021/06/07 13:14:14;;;;;;;3.13;2.40;;;;;;;20.31;61.73;100879.19;;;;-54
2021/06/07 13:17:13;;;;;;;4.37;2.19;;;;;;;20.32;61.59;100875.55;;;;-51
2021/06/07 13:20:14;;;;;;;3.46;2.44;;;;;;;20.32;61.70;100870.83;;;;-52
2021/06/07 13:23:14;;;;;;;2.60;2.29;;;;;;;20.33;61.66;100868.70;;;;-51
2021/06/07 13:26:13;;;;;;;2.89;2.07;;;;;;;20.33;61.58;100866.75;;;;-51
2021/06/07 13:29:14;;;;;;;2.45;2.13;;;;;;;20.34;61.63;100866.69;;;;-52
2021/06/07 13:32:13;;;;;;;3.00;2.38;;;;;;;20.35;61.31;100864.90;;;;-52
2021/06/07 13:35:17;;;;;;;3.09;2.24;;;;;;;20.34;61.38;100863.11;;;;-52
2021/06/07 13:38:14;;;;;;;4.70;2.31;;;;;;;20.32;61.51;100862.77;;;;-50
2021/06/07 13:41:13;;;;;;;3.45;2.30;;;;;;;20.33;61.62;100858.94;;;;-53
2021/06/07 13:44:13;;;;;;;3.28;2.33;;;;;;;20.34;61.57;100856.20;;;;-52
2021/06/07 13:47:14;;;;;;;5.45;2.34;;;;;;;20.33;61.70;100852.91;;;;-51
2021/06/07 13:50:14;;;;;;;3.09;2.25;;;;;;;20.34;61.70;100850.50;;;;-54
2021/06/07 13:53:14;;;;;;;13.99;2.70;;;;;;;20.34;61.99;100851.96;;;;-47
2021/06/07 13:56:14;;;;;;;4.34;2.51;;;;;;;20.36;61.97;100851.33;;;;-51
2021/06/07 13:59:13;;;;;;;3.60;2.31;;;;;;;20.38;61.99;100845.73;;;;-51
2021/06/07 14:02:14;;;;;;;5.07;2.49;;;;;;;20.39;62.08;100846.70;;;;-51
2021/06/07 14:05:13;;;;;;;3.95;2.59;;;;;;;20.39;62.13;100850.77;;;;-51
2021/06/07 14:08:14;;;;;;;3.32;2.39;;;;;;;20.39;62.08;100845.72;;;;-52
2021/06/07 14:11:13;;;;;;;2.91;2.38;;;;;;;20.41;61.88;100846.56;;;;-52
2021/06/07 14:14:15;;;;;;;3.31;2.37;;;;;;;20.40;62.05;100844.20;;;;-51
2021/06/07 14:17:14;;;;;;;3.73;2.39;;;;;;;20.41;61.86;100835.81;;;;-53
2021/06/07 14:20:13;;;;;;;4.75;2.55;;;;;;;20.41;61.66;100834.67;;;;-52
2021/06/07 14:26:13;;;;;;;3.95;2.53;;;;;;;20.41;61.86;100830.36;;;;-51
2021/06/07 14:29:13;;;;;;;9.77;2.53;;;;;;;20.40;61.71;100831.59;;;;-57
2021/06/07 14:32:15;;;;;;;4.63;2.38;;;;;;;20.41;61.79;100826.61;;;;-47
2021/06/07 14:35:14;;;;;;;3.80;2.31;;;;;;;20.42;61.84;100818.47;;;;-48
2021/06/07 14:38:14;;;;;;;2.92;2.47;;;;;;;20.43;61.86;100818.90;;;;-48
2021/06/07 14:41:14;;;;;;;2.99;2.60;;;;;;;20.43;61.84;100822.23;;;;-49
2021/06/07 14:44:13;;;;;;;2.99;2.60;;;;;;;20.44;61.67;100820.19;;;;-48
2021/06/07 14:47:15;;;;;;;5.40;2.89;;;;;;;20.43;61.71;100824.27;;;;-48
2021/06/07 14:50:13;;;;;;;4.80;2.70;;;;;;;20.44;61.79;100821.69;;;;-51
2021/06/07 14:53:14;;;;;;;3.25;2.47;;;;;;;20.44;61.74;100819.89;;;;-51
2021/06/07 14:56:14;;;;;;;3.00;2.54;;;;;;;20.45;61.80;100820.14;;;;-50
2021/06/07 14:59:13;;;;;;;4.03;2.61;;;;;;;20.45;61.78;100817.20;;;;-53
2021/06/07 15:02:14;;;;;;;2.59;2.39;;;;;;;20.45;61.44;100817.78;;;;-53
2021/06/07 15:05:13;;;;;;;2.98;2.53;;;;;;;20.44;61.70;100818.16;;;;-52
2021/06/07 15:08:13;;;;;;;3.23;2.39;;;;;;;20.44;61.38;100817.70;;;;-51
2021/06/07 15:11:14;;;;;;;7.66;2.81;;;;;;;20.45;61.65;100819.16;;;;-51
2021/06/07 15:14:14;;;;;;;5.95;2.65;;;;;;;20.44;61.47;100817.05;;;;-51
2021/06/07 15:17:16;;;;;;;4.51;2.52;;;;;;;20.45;61.39;100818.67;;;;-53
2021/06/07 15:20:14;;;;;;;3.34;2.83;;;;;;;20.44;61.54;100813.06;;;;-53
2021/06/07 15:23:14;;;;;;;5.73;2.79;;;;;;;20.44;61.47;100811.16;;;;-51
2021/06/07 15:26:14;;;;;;;4.33;2.54;;;;;;;20.45;61.66;100814.52;;;;-49
2021/06/07 15:29:13;;;;;;;2.87;2.47;;;;;;;20.46;61.66;100809.57;;;;-48
2021/06/07 15:32:13;;;;;;;4.57;2.59;;;;;;;20.46;61.60;100804.94;;;;-50
2021/06/07 15:35:13;;;;;;;4.85;2.54;;;;;;;20.47;61.66;100805.17;;;;-51
2021/06/07 15:38:14;;;;;;;4.73;2.56;;;;;;;20.48;61.55;100799.87;;;;-52
2021/06/07 15:41:15;;;;;;;3.44;2.53;;;;;;;20.48;61.57;100793.20;;;;-50
2021/06/07 15:44:14;;;;;;;4.87;2.71;;;;;;;20.48;61.72;100788.99;;;;-55
2021/06/07 15:47:13;;;;;;;3.25;2.59;;;;;;;20.49;61.59;100785.56;;;;-52
2021/06/07 15:50:13;;;;;;;3.67;2.47;;;;;;;20.48;61.48;100782.88;;;;-50
2021/06/07 15:53:13;;;;;;;3.75;2.72;;;;;;;20.49;61.58;100781.98;;;;-51
2021/06/07 15:56:14;;;;;;;5.10;2.78;;;;;;;20.50;61.65;100787.35;;;;-51
2021/06/07 15:59:13;;;;;;;3.63;2.53;;;;;;;20.49;61.57;100788.09;;;;-51
2021/06/07 16:02:13;;;;;;;4.51;2.60;;;;;;;20.49;61.47;100784.11;;;;-50
2021/06/07 16:05:14;;;;;;;3.35;2.61;;;;;;;20.49;61.24;100782.55;;;;-58
2021/06/07 16:08:13;;;;;;;3.67;2.66;;;;;;;20.49;61.70;100781.98;;;;-51
2021/06/07 16:11:13;;;;;;;4.68;2.61;;;;;;;20.51;61.57;100778.02;;;;-52
2021/06/07 16:14:13;;;;;;;5.06;2.63;;;;;;;20.51;61.55;100778.98;;;;-51
2021/06/07 16:17:16;;;;;;;2.89;2.59;;;;;;;20.51;61.52;100777.44;;;;-52
2021/06/07 16:23:13;;;;;;;5.65;2.95;;;;;;;20.52;61.64;100784.60;;;;-58
2021/06/07 16:26:14;;;;;;;7.85;2.84;;;;;;;20.53;61.73;100786.33;;;;-49
2021/06/07 16:29:15;;;;;;;6.32;3.17;;;;;;;20.52;61.89;100782.73;;;;-58
2021/06/07 16:32:13;;;;;;;5.92;3.29;;;;;;;20.52;61.76;100782.31;;;;-52
2021/06/07 16:35:14;;;;;;;4.60;3.07;;;;;;;20.52;61.89;100785.81;;;;-53
2021/06/07 16:38:13;;;;;;;9.38;3.06;;;;;;;20.52;61.77;100779.95;;;;-54
2021/06/07 16:41:14;;;;;;;4.59;3.04;;;;;;;20.52;61.67;100776.97;;;;-60
2021/06/07 16:44:13;;;;;;;4.10;3.28;;;;;;;20.53;61.88;100780.63;;;;-58
2021/06/07 16:47:13;;;;;;;6.24;3.27;;;;;;;20.53;61.84;100781.86;;;;-52
2021/06/07 16:50:19;;;;;;;7.53;3.41;;;;;;;20.52;61.70;100783.48;;;;-51
2021/06/07 16:53:13;;;;;;;3.86;2.99;;;;;;;20.52;61.72;100776.87;;;;-51
2021/06/07 16:56:14;;;;;;;5.42;3.33;;;;;;;20.49;61.68;100775.55;;;;-51